sensor_id;sensor_type;location;lat;lon;timestamp;temperature;humidity
9157;DHT22;4613;48.392;9.998;2023-02-15T00:01:10;0.20;99.90
9157;DHT22;4613;48.392;9.998;2023-02-15T00:03:59;0.30;99.90
9157;DHT22;4613;48.392;9.998;2023-02-15T00:06:49;0.40;99.90
9157;DHT22;4613;48.392;9.998;2023-02-15T00:09:39;0.50;99.90
9157;DHT22;4613;48.392;9.998;2023-02-15T00:12:28;0.50;99.90
9157;DHT22;4613;48.392;9.998;2023-02-15T00:15:19;0.60;99.90
9157;DHT22;4613;48.392;9.998;2023-02-15T00:18:08;0.80;99.90
9157;DHT22;4613;48.392;9.998;2023-02-15T00:20:58;0.80;99.90
9157;DHT22;4613;48.392;9.998;2023-02-15T00:23:47;0.90;99.90
9157;DHT22;4613;48.392;9.998;2023-02-15T00:26:41;1.20;99.90
9157;DHT22;4613;48.392;9.998;2023-02-15T00:29:30;1.20;99.90
9157;DHT22;4613;48.392;9.998;2023-02-15T00:32:20;1.00;99.90
9157;DHT22;4613;48.392;9.998;2023-02-15T00:35:10;1.10;99.90
9157;DHT22;4613;48.392;9.998;2023-02-15T00:37:59;1.10;99.90
9157;DHT22;4613;48.392;9.998;2023-02-15T00:40:57;1.00;99.90
9157;DHT22;4613;48.392;9.998;2023-02-15T00:43:48;0.90;99.90
9157;DHT22;4613;48.392;9.998;2023-02-15T00:46:37;0.90;99.90
9157;DHT22;4613;48.392;9.998;2023-02-15T00:49:27;1.00;99.90
9157;DHT22;4613;48.392;9.998;2023-02-15T00:52:17;1.10;99.90
9157;DHT22;4613;48.392;9.998;2023-02-15T00:55:07;1.20;99.90
9157;DHT22;4613;48.392;9.998;2023-02-15T00:57:56;1.20;99.90
9157;DHT22;4613;48.392;9.998;2023-02-15T01:00:48;1.20;99.90
9157;DHT22;4613;48.392;9.998;2023-02-15T01:03:39;1.00;99.90
9157;DHT22;4613;48.392;9.998;2023-02-15T01:06:32;1.00;99.90
9157;DHT22;4613;48.392;9.998;2023-02-15T01:09:21;1.30;99.90
9157;DHT22;4613;48.392;9.998;2023-02-15T01:12:10;1.20;99.90
9157;DHT22;4613;48.392;9.998;2023-02-15T01:15:00;1.20;99.90
9157;DHT22;4613;48.392;9.998;2023-02-15T01:17:50;1.10;99.90
9157;DHT22;4613;48.392;9.998;2023-02-15T01:20:44;1.00;99.90
9157;DHT22;4613;48.392;9.998;2023-02-15T01:23:33;0.90;99.90
9157;DHT22;4613;48.392;9.998;2023-02-15T01:26:22;1.00;99.90
9157;DHT22;4613;48.392;9.998;2023-02-15T01:29:11;0.90;99.90
9157;DHT22;4613;48.392;9.998;2023-02-15T01:32:01;0.90;99.90
9157;DHT22;4613;48.392;9.998;2023-02-15T01:34:50;0.50;99.90
9157;DHT22;4613;48.392;9.998;2023-02-15T01:37:40;0.40;99.90
9157;DHT22;4613;48.392;9.998;2023-02-15T01:40:29;0.50;99.90
9157;DHT22;4613;48.392;9.998;2023-02-15T01:43:18;0.50;99.90
9157;DHT22;4613;48.392;9.998;2023-02-15T01:46:09;0.70;99.90
9157;DHT22;4613;48.392;9.998;2023-02-15T01:49:07;0.70;99.90
9157;DHT22;4613;48.392;9.998;2023-02-15T01:51:58;0.50;99.90
9157;DHT22;4613;48.392;9.998;2023-02-15T01:54:48;0.20;99.90
9157;DHT22;4613;48.392;9.998;2023-02-15T01:57:37;0.40;99.90
9157;DHT22;4613;48.392;9.998;2023-02-15T02:00:28;0.20;99.90
9157;DHT22;4613;48.392;9.998;2023-02-15T02:03:24;0.10;99.90
9157;DHT22;4613;48.392;9.998;2023-02-15T02:06:19;0.20;99.90
9157;DHT22;4613;48.392;9.998;2023-02-15T02:09:08;0.00;99.90
9157;DHT22;4613;48.392;9.998;2023-02-15T02:11:58;0.20;99.90
9157;DHT22;4613;48.392;9.998;2023-02-15T02:14:48;0.30;99.90
9157;DHT22;4613;48.392;9.998;2023-02-15T02:18:03;0.40;99.90
9157;DHT22;4613;48.392;9.998;2023-02-15T02:34:46;0.80;99.90
9157;DHT22;4613;48.392;9.998;2023-02-15T02:44:18;0.90;99.90
9157;DHT22;4613;48.392;9.998;2023-02-15T02:47:30;0.80;99.90
9157;DHT22;4613;48.392;9.998;2023-02-15T02:50:27;0.40;99.90
9157;DHT22;4613;48.392;9.998;2023-02-15T02:53:17;0.20;99.90
9157;DHT22;4613;48.392;9.998;2023-02-15T02:56:21;-0.10;99.90
9157;DHT22;4613;48.392;9.998;2023-02-15T02:59:21;-0.10;99.90
9157;DHT22;4613;48.392;9.998;2023-02-15T03:02:23;0.00;99.90
9157;DHT22;4613;48.392;9.998;2023-02-15T03:05:16;0.10;99.90
9157;DHT22;4613;48.392;9.998;2023-02-15T03:08:08;0.00;99.90
9157;DHT22;4613;48.392;9.998;2023-02-15T03:11:02;0.00;99.90
9157;DHT22;4613;48.392;9.998;2023-02-15T03:13:54;0.20;99.90
9157;DHT22;4613;48.392;9.998;2023-02-15T03:16:46;0.30;99.90
9157;DHT22;4613;48.392;9.998;2023-02-15T03:19:37;0.10;99.90
9157;DHT22;4613;48.392;9.998;2023-02-15T03:22:35;-0.10;99.90
9157;DHT22;4613;48.392;9.998;2023-02-15T03:25:39;0.10;99.90
9157;DHT22;4613;48.392;9.998;2023-02-15T03:28:44;0.10;99.90
9157;DHT22;4613;48.392;9.998;2023-02-15T03:31:38;0.30;99.90
9157;DHT22;4613;48.392;9.998;2023-02-15T03:34:29;0.20;99.90
9157;DHT22;4613;48.392;9.998;2023-02-15T03:37:26;0.20;99.90
9157;DHT22;4613;48.392;9.998;2023-02-15T03:40:23;0.10;99.90
9157;DHT22;4613;48.392;9.998;2023-02-15T03:43:49;0.10;99.90
9157;DHT22;4613;48.392;9.998;2023-02-15T03:46:45;0.00;99.90
9157;DHT22;4613;48.392;9.998;2023-02-15T03:52:41;0.30;99.90
9157;DHT22;4613;48.392;9.998;2023-02-15T03:55:30;0.50;99.90
9157;DHT22;4613;48.392;9.998;2023-02-15T03:58:20;0.60;99.90
9157;DHT22;4613;48.392;9.998;2023-02-15T04:01:34;0.00;99.90
9157;DHT22;4613;48.392;9.998;2023-02-15T04:04:51;0.40;99.90
9157;DHT22;4613;48.392;9.998;2023-02-15T04:07:40;0.50;99.90
9157;DHT22;4613;48.392;9.998;2023-02-15T04:10:30;0.30;99.90
9157;DHT22;4613;48.392;9.998;2023-02-15T04:13:38;0.40;99.90
9157;DHT22;4613;48.392;9.998;2023-02-15T04:16:28;-0.20;99.90
9157;DHT22;4613;48.392;9.998;2023-02-15T04:19:17;-0.50;99.90
9157;DHT22;4613;48.392;9.998;2023-02-15T04:22:25;-0.40;99.90
9157;DHT22;4613;48.392;9.998;2023-02-15T04:25:34;-0.40;99.90
9157;DHT22;4613;48.392;9.998;2023-02-15T04:28:27;-0.40;99.90
9157;DHT22;4613;48.392;9.998;2023-02-15T04:31:17;-0.30;99.90
9157;DHT22;4613;48.392;9.998;2023-02-15T04:34:07;-0.30;99.90
9157;DHT22;4613;48.392;9.998;2023-02-15T04:36:56;-0.30;99.90
9157;DHT22;4613;48.392;9.998;2023-02-15T04:39:45;0.10;99.90
9157;DHT22;4613;48.392;9.998;2023-02-15T04:42:35;0.20;99.90
9157;DHT22;4613;48.392;9.998;2023-02-15T04:45:24;0.10;99.90
9157;DHT22;4613;48.392;9.998;2023-02-15T04:48:13;-0.30;99.90
9157;DHT22;4613;48.392;9.998;2023-02-15T04:51:06;-0.20;99.90
9157;DHT22;4613;48.392;9.998;2023-02-15T04:53:56;-0.10;99.90
9157;DHT22;4613;48.392;9.998;2023-02-15T04:56:45;0.00;99.90
9157;DHT22;4613;48.392;9.998;2023-02-15T04:59:35;-0.20;99.90
9157;DHT22;4613;48.392;9.998;2023-02-15T05:02:24;-0.20;99.90
9157;DHT22;4613;48.392;9.998;2023-02-15T05:05:13;0.10;99.90
9157;DHT22;4613;48.392;9.998;2023-02-15T05:08:04;0.10;99.90
9157;DHT22;4613;48.392;9.998;2023-02-15T05:10:54;0.10;99.90
9157;DHT22;4613;48.392;9.998;2023-02-15T05:13:45;-0.20;99.90
9157;DHT22;4613;48.392;9.998;2023-02-15T05:16:38;-0.10;99.90
9157;DHT22;4613;48.392;9.998;2023-02-15T05:19:27;-0.50;99.90
9157;DHT22;4613;48.392;9.998;2023-02-15T05:22:17;-0.80;99.90
9157;DHT22;4613;48.392;9.998;2023-02-15T05:25:08;-0.70;99.90
9157;DHT22;4613;48.392;9.998;2023-02-15T05:28:16;-0.30;99.90
9157;DHT22;4613;48.392;9.998;2023-02-15T05:31:17;-0.40;99.90
9157;DHT22;4613;48.392;9.998;2023-02-15T05:34:06;-0.20;99.90
9157;DHT22;4613;48.392;9.998;2023-02-15T05:36:56;-0.60;99.90
9157;DHT22;4613;48.392;9.998;2023-02-15T05:39:45;-0.80;99.90
9157;DHT22;4613;48.392;9.998;2023-02-15T05:42:35;-0.90;99.90
9157;DHT22;4613;48.392;9.998;2023-02-15T05:45:25;-0.70;99.90
9157;DHT22;4613;48.392;9.998;2023-02-15T05:48:15;-0.90;99.90
9157;DHT22;4613;48.392;9.998;2023-02-15T05:51:10;-0.60;99.90
9157;DHT22;4613;48.392;9.998;2023-02-15T05:54:02;-0.30;99.90
9157;DHT22;4613;48.392;9.998;2023-02-15T05:56:52;-0.20;99.90
9157;DHT22;4613;48.392;9.998;2023-02-15T05:59:41;-0.20;99.90
9157;DHT22;4613;48.392;9.998;2023-02-15T06:02:35;-0.40;99.90
9157;DHT22;4613;48.392;9.998;2023-02-15T06:05:25;-0.50;99.90
9157;DHT22;4613;48.392;9.998;2023-02-15T06:08:14;-0.10;99.90
9157;DHT22;4613;48.392;9.998;2023-02-15T06:11:04;-0.10;99.90
9157;DHT22;4613;48.392;9.998;2023-02-15T06:13:57;-0.20;99.90
9157;DHT22;4613;48.392;9.998;2023-02-15T06:16:46;-0.70;99.90
9157;DHT22;4613;48.392;9.998;2023-02-15T06:19:36;-1.00;99.90
9157;DHT22;4613;48.392;9.998;2023-02-15T06:22:26;-0.50;99.90
9157;DHT22;4613;48.392;9.998;2023-02-15T06:25:16;-0.50;99.90
9157;DHT22;4613;48.392;9.998;2023-02-15T06:28:06;-0.40;99.90
9157;DHT22;4613;48.392;9.998;2023-02-15T06:30:56;-0.60;99.90
9157;DHT22;4613;48.392;9.998;2023-02-15T06:33:46;-0.60;99.90
9157;DHT22;4613;48.392;9.998;2023-02-15T06:36:37;-1.00;99.90
9157;DHT22;4613;48.392;9.998;2023-02-15T06:42:34;-0.80;99.90
9157;DHT22;4613;48.392;9.998;2023-02-15T06:45:24;-0.60;99.90
9157;DHT22;4613;48.392;9.998;2023-02-15T06:48:14;-0.90;99.90
9157;DHT22;4613;48.392;9.998;2023-02-15T06:51:03;-0.90;99.90
9157;DHT22;4613;48.392;9.998;2023-02-15T06:53:53;-0.70;99.90
9157;DHT22;4613;48.392;9.998;2023-02-15T06:56:42;-0.90;99.90
9157;DHT22;4613;48.392;9.998;2023-02-15T06:59:32;-0.70;99.90
9157;DHT22;4613;48.392;9.998;2023-02-15T07:02:22;-0.80;99.90
9157;DHT22;4613;48.392;9.998;2023-02-15T07:05:11;-0.70;99.90
9157;DHT22;4613;48.392;9.998;2023-02-15T07:08:00;-0.60;99.90
9157;DHT22;4613;48.392;9.998;2023-02-15T07:10:51;-0.50;99.90
9157;DHT22;4613;48.392;9.998;2023-02-15T07:13:41;-0.50;99.90
9157;DHT22;4613;48.392;9.998;2023-02-15T07:16:33;-0.70;99.90
9157;DHT22;4613;48.392;9.998;2023-02-15T07:19:26;-0.40;99.90
9157;DHT22;4613;48.392;9.998;2023-02-15T07:22:17;-0.10;99.90
9157;DHT22;4613;48.392;9.998;2023-02-15T07:25:08;-0.10;99.90
9157;DHT22;4613;48.392;9.998;2023-02-15T07:27:59;0.10;99.90
9157;DHT22;4613;48.392;9.998;2023-02-15T07:30:51;-0.10;99.90
9157;DHT22;4613;48.392;9.998;2023-02-15T07:33:41;0.00;99.90
9157;DHT22;4613;48.392;9.998;2023-02-15T07:36:31;-0.30;99.90
9157;DHT22;4613;48.392;9.998;2023-02-15T07:39:21;-0.20;99.90
9157;DHT22;4613;48.392;9.998;2023-02-15T07:42:12;-0.20;99.90
9157;DHT22;4613;48.392;9.998;2023-02-15T07:45:01;-0.10;99.90
9157;DHT22;4613;48.392;9.998;2023-02-15T07:47:51;0.20;99.90
9157;DHT22;4613;48.392;9.998;2023-02-15T07:50:40;0.10;99.90
9157;DHT22;4613;48.392;9.998;2023-02-15T07:53:31;0.10;99.90
9157;DHT22;4613;48.392;9.998;2023-02-15T07:56:20;0.10;99.90
9157;DHT22;4613;48.392;9.998;2023-02-15T07:59:10;0.50;99.90
9157;DHT22;4613;48.392;9.998;2023-02-15T08:01:59;0.50;99.90
9157;DHT22;4613;48.392;9.998;2023-02-15T08:04:50;0.00;99.90
9157;DHT22;4613;48.392;9.998;2023-02-15T08:07:39;0.10;99.90
9157;DHT22;4613;48.392;9.998;2023-02-15T08:10:31;0.30;99.90
9157;DHT22;4613;48.392;9.998;2023-02-15T08:13:39;-0.50;99.90
9157;DHT22;4613;48.392;9.998;2023-02-15T08:19:38;-0.10;99.90
9157;DHT22;4613;48.392;9.998;2023-02-15T08:22:31;-0.10;99.90
9157;DHT22;4613;48.392;9.998;2023-02-15T08:25:22;-0.30;99.90
9157;DHT22;4613;48.392;9.998;2023-02-15T08:28:11;-0.80;99.90
9157;DHT22;4613;48.392;9.998;2023-02-15T08:31:10;-0.80;99.90
9157;DHT22;4613;48.392;9.998;2023-02-15T08:33:59;-0.40;99.90
9157;DHT22;4613;48.392;9.998;2023-02-15T08:36:49;-0.70;99.90
9157;DHT22;4613;48.392;9.998;2023-02-15T08:39:39;-0.80;99.90
9157;DHT22;4613;48.392;9.998;2023-02-15T08:42:28;-1.00;99.90
9157;DHT22;4613;48.392;9.998;2023-02-15T08:45:17;-0.80;99.90
9157;DHT22;4613;48.392;9.998;2023-02-15T08:48:06;-0.70;99.90
9157;DHT22;4613;48.392;9.998;2023-02-15T08:50:56;-0.40;99.90
9157;DHT22;4613;48.392;9.998;2023-02-15T08:53:48;-0.30;99.90
9157;DHT22;4613;48.392;9.998;2023-02-15T08:56:40;-0.10;99.90
9157;DHT22;4613;48.392;9.998;2023-02-15T08:59:29;0.20;99.90
9157;DHT22;4613;48.392;9.998;2023-02-15T09:02:19;0.00;99.90
9157;DHT22;4613;48.392;9.998;2023-02-15T09:05:08;-0.30;99.90
9157;DHT22;4613;48.392;9.998;2023-02-15T09:07:58;-0.50;99.90
9157;DHT22;4613;48.392;9.998;2023-02-15T09:10:47;-0.60;99.90
9157;DHT22;4613;48.392;9.998;2023-02-15T09:13:37;-0.60;99.90
9157;DHT22;4613;48.392;9.998;2023-02-15T09:16:29;-0.50;99.90
9157;DHT22;4613;48.392;9.998;2023-02-15T09:19:24;-0.50;99.90
9157;DHT22;4613;48.392;9.998;2023-02-15T09:22:14;-0.50;99.90
9157;DHT22;4613;48.392;9.998;2023-02-15T09:25:03;-0.30;99.90
9157;DHT22;4613;48.392;9.998;2023-02-15T09:27:53;0.10;99.90
9157;DHT22;4613;48.392;9.998;2023-02-15T09:33:30;-0.10;99.90
9157;DHT22;4613;48.392;9.998;2023-02-15T09:36:39;0.30;99.90
9157;DHT22;4613;48.392;9.998;2023-02-15T09:39:29;0.70;99.90
9157;DHT22;4613;48.392;9.998;2023-02-15T09:46:12;0.70;99.90
9157;DHT22;4613;48.392;9.998;2023-02-15T09:49:30;0.00;99.90
9157;DHT22;4613;48.392;9.998;2023-02-15T10:07:22;-0.20;99.90
9157;DHT22;4613;48.392;9.998;2023-02-15T10:10:46;0.00;99.90
9157;DHT22;4613;48.392;9.998;2023-02-15T10:13:52;-0.10;99.90
9157;DHT22;4613;48.392;9.998;2023-02-15T10:23:41;0.10;99.90
9157;DHT22;4613;48.392;9.998;2023-02-15T10:26:48;0.10;99.90
9157;DHT22;4613;48.392;9.998;2023-02-15T10:29:43;0.20;99.90
9157;DHT22;4613;48.392;9.998;2023-02-15T10:36:05;0.80;99.90
9157;DHT22;4613;48.392;9.998;2023-02-15T10:42:10;0.70;99.90
9157;DHT22;4613;48.392;9.998;2023-02-15T10:46:05;0.60;99.90
9157;DHT22;4613;48.392;9.998;2023-02-15T10:48:58;0.60;99.90
9157;DHT22;4613;48.392;9.998;2023-02-15T10:58:31;0.80;99.90
9157;DHT22;4613;48.392;9.998;2023-02-15T11:02:49;1.00;99.90
9157;DHT22;4613;48.392;9.998;2023-02-15T11:08:22;1.20;99.90
9157;DHT22;4613;48.392;9.998;2023-02-15T11:11:16;1.50;99.90
9157;DHT22;4613;48.392;9.998;2023-02-15T11:14:34;1.50;99.90
9157;DHT22;4613;48.392;9.998;2023-02-15T11:17:39;1.50;99.90
9157;DHT22;4613;48.392;9.998;2023-02-15T11:20:38;1.60;99.90
9157;DHT22;4613;48.392;9.998;2023-02-15T11:23:32;1.60;99.90
9157;DHT22;4613;48.392;9.998;2023-02-15T11:26:34;1.40;99.90
9157;DHT22;4613;48.392;9.998;2023-02-15T11:29:38;1.70;99.90
9157;DHT22;4613;48.392;9.998;2023-02-15T11:32:33;1.30;99.90
9157;DHT22;4613;48.392;9.998;2023-02-15T11:35:34;1.90;99.90
9157;DHT22;4613;48.392;9.998;2023-02-15T11:38:32;1.60;99.90
9157;DHT22;4613;48.392;9.998;2023-02-15T11:41:31;1.70;99.90
9157;DHT22;4613;48.392;9.998;2023-02-15T11:44:32;2.30;99.90
9157;DHT22;4613;48.392;9.998;2023-02-15T11:47:23;2.60;99.90
9157;DHT22;4613;48.392;9.998;2023-02-15T11:50:16;3.20;99.90
9157;DHT22;4613;48.392;9.998;2023-02-15T11:53:16;3.60;99.90
9157;DHT22;4613;48.392;9.998;2023-02-15T11:56:16;3.40;99.90
9157;DHT22;4613;48.392;9.998;2023-02-15T11:59:29;3.10;99.90
9157;DHT22;4613;48.392;9.998;2023-02-15T12:02:21;3.30;99.90
9157;DHT22;4613;48.392;9.998;2023-02-15T12:05:21;3.40;99.90
9157;DHT22;4613;48.392;9.998;2023-02-15T12:08:37;3.30;99.90
9157;DHT22;4613;48.392;9.998;2023-02-15T12:11:39;4.20;99.90
9157;DHT22;4613;48.392;9.998;2023-02-15T12:14:47;4.60;99.90
9157;DHT22;4613;48.392;9.998;2023-02-15T12:17:53;4.70;99.90
9157;DHT22;4613;48.392;9.998;2023-02-15T12:20:44;5.10;99.90
9157;DHT22;4613;48.392;9.998;2023-02-15T12:23:39;5.20;99.90
9157;DHT22;4613;48.392;9.998;2023-02-15T12:26:36;5.50;99.90
9157;DHT22;4613;48.392;9.998;2023-02-15T12:29:29;6.70;99.90
9157;DHT22;4613;48.392;9.998;2023-02-15T12:32:34;6.10;99.90
9157;DHT22;4613;48.392;9.998;2023-02-15T12:35:27;6.90;99.90
9157;DHT22;4613;48.392;9.998;2023-02-15T12:38:36;7.00;99.90
9157;DHT22;4613;48.392;9.998;2023-02-15T12:41:26;6.80;99.90
9157;DHT22;4613;48.392;9.998;2023-02-15T12:44:18;7.70;99.90
9157;DHT22;4613;48.392;9.998;2023-02-15T12:50:23;8.10;99.90
9157;DHT22;4613;48.392;9.998;2023-02-15T12:53:21;8.00;99.90
9157;DHT22;4613;48.392;9.998;2023-02-15T12:56:13;7.60;99.90
9157;DHT22;4613;48.392;9.998;2023-02-15T12:59:16;7.30;99.90
9157;DHT22;4613;48.392;9.998;2023-02-15T13:02:17;7.80;99.90
9157;DHT22;4613;48.392;9.998;2023-02-15T13:08:31;8.30;99.90
9157;DHT22;4613;48.392;9.998;2023-02-15T13:11:29;8.50;99.90
9157;DHT22;4613;48.392;9.998;2023-02-15T13:14:31;8.60;99.90
9157;DHT22;4613;48.392;9.998;2023-02-15T13:17:30;8.40;99.90
9157;DHT22;4613;48.392;9.998;2023-02-15T13:20:22;8.30;99.90
9157;DHT22;4613;48.392;9.998;2023-02-15T13:23:45;8.30;99.90
9157;DHT22;4613;48.392;9.998;2023-02-15T13:29:54;8.80;99.90
9157;DHT22;4613;48.392;9.998;2023-02-15T13:32:51;8.00;99.90
9157;DHT22;4613;48.392;9.998;2023-02-15T13:36:14;7.70;99.90
9157;DHT22;4613;48.392;9.998;2023-02-15T13:42:31;7.70;99.90
9157;DHT22;4613;48.392;9.998;2023-02-15T13:45:36;8.60;99.90
9157;DHT22;4613;48.392;9.998;2023-02-15T13:48:47;8.90;99.90
9157;DHT22;4613;48.392;9.998;2023-02-15T13:55:36;7.40;99.90
9157;DHT22;4613;48.392;9.998;2023-02-15T14:01:37;7.80;99.90
9157;DHT22;4613;48.392;9.998;2023-02-15T14:07:54;7.90;99.90
9157;DHT22;4613;48.392;9.998;2023-02-15T14:11:21;7.80;99.90
9157;DHT22;4613;48.392;9.998;2023-02-15T14:17:47;7.40;99.90
9157;DHT22;4613;48.392;9.998;2023-02-15T14:20:55;7.30;99.90
9157;DHT22;4613;48.392;9.998;2023-02-15T14:30:03;7.10;99.90
9157;DHT22;4613;48.392;9.998;2023-02-15T14:33:08;7.10;99.90
9157;DHT22;4613;48.392;9.998;2023-02-15T14:35:59;7.00;99.90
9157;DHT22;4613;48.392;9.998;2023-02-15T14:42:47;6.90;99.90
9157;DHT22;4613;48.392;9.998;2023-02-15T14:52:07;7.00;99.90
9157;DHT22;4613;48.392;9.998;2023-02-15T14:54:58;7.10;99.90
9157;DHT22;4613;48.392;9.998;2023-02-15T14:57:58;7.10;99.90
9157;DHT22;4613;48.392;9.998;2023-02-15T15:00:47;7.20;99.90
9157;DHT22;4613;48.392;9.998;2023-02-15T15:03:47;7.30;99.90
9157;DHT22;4613;48.392;9.998;2023-02-15T15:06:41;7.20;99.90
9157;DHT22;4613;48.392;9.998;2023-02-15T15:09:36;7.30;99.90
9157;DHT22;4613;48.392;9.998;2023-02-15T15:18:44;7.40;99.90
9157;DHT22;4613;48.392;9.998;2023-02-15T15:27:58;7.40;99.90
9157;DHT22;4613;48.392;9.998;2023-02-15T15:30:48;7.40;99.90
9157;DHT22;4613;48.392;9.998;2023-02-15T15:40:17;7.50;99.90
9157;DHT22;4613;48.392;9.998;2023-02-15T15:43:29;7.50;99.90
9157;DHT22;4613;48.392;9.998;2023-02-15T15:49:34;7.50;99.90
9157;DHT22;4613;48.392;9.998;2023-02-15T15:52:28;7.40;99.90
9157;DHT22;4613;48.392;9.998;2023-02-15T15:55:31;7.30;99.90
9157;DHT22;4613;48.392;9.998;2023-02-15T15:58:23;7.20;99.90
9157;DHT22;4613;48.392;9.998;2023-02-15T16:01:15;7.20;99.90
9157;DHT22;4613;48.392;9.998;2023-02-15T16:04:05;7.10;99.90
9157;DHT22;4613;48.392;9.998;2023-02-15T16:06:55;7.00;99.90
9157;DHT22;4613;48.392;9.998;2023-02-15T16:10:01;7.00;99.90
9157;DHT22;4613;48.392;9.998;2023-02-15T16:12:51;6.80;99.90
9157;DHT22;4613;48.392;9.998;2023-02-15T16:15:46;6.70;99.90
9157;DHT22;4613;48.392;9.998;2023-02-15T16:18:45;6.60;99.90
9157;DHT22;4613;48.392;9.998;2023-02-15T16:21:36;6.50;99.90
9157;DHT22;4613;48.392;9.998;2023-02-15T16:27:43;6.30;99.90
9157;DHT22;4613;48.392;9.998;2023-02-15T16:30:35;6.20;99.90
9157;DHT22;4613;48.392;9.998;2023-02-15T16:33:35;6.10;99.90
9157;DHT22;4613;48.392;9.998;2023-02-15T16:36:28;6.00;99.90
9157;DHT22;4613;48.392;9.998;2023-02-15T16:39:19;5.80;99.90
9157;DHT22;4613;48.392;9.998;2023-02-15T16:42:11;5.70;99.90
9157;DHT22;4613;48.392;9.998;2023-02-15T16:45:21;5.60;99.90
9157;DHT22;4613;48.392;9.998;2023-02-15T16:48:19;5.60;99.90
9157;DHT22;4613;48.392;9.998;2023-02-15T16:51:09;5.50;99.90
9157;DHT22;4613;48.392;9.998;2023-02-15T16:54:07;5.40;99.90
9157;DHT22;4613;48.392;9.998;2023-02-15T16:56:57;5.40;99.90
9157;DHT22;4613;48.392;9.998;2023-02-15T16:59:48;5.40;99.90
9157;DHT22;4613;48.392;9.998;2023-02-15T17:02:39;5.30;99.90
9157;DHT22;4613;48.392;9.998;2023-02-15T17:05:33;5.20;99.90
9157;DHT22;4613;48.392;9.998;2023-02-15T17:08:43;5.20;99.90
9157;DHT22;4613;48.392;9.998;2023-02-15T17:11:41;5.10;99.90
9157;DHT22;4613;48.392;9.998;2023-02-15T17:14:31;5.10;99.90
9157;DHT22;4613;48.392;9.998;2023-02-15T17:17:21;5.00;99.90
9157;DHT22;4613;48.392;9.998;2023-02-15T17:20:15;4.90;99.90
9157;DHT22;4613;48.392;9.998;2023-02-15T17:23:05;4.90;99.90
9157;DHT22;4613;48.392;9.998;2023-02-15T17:25:55;4.80;99.90
9157;DHT22;4613;48.392;9.998;2023-02-15T17:28:58;4.70;99.90
9157;DHT22;4613;48.392;9.998;2023-02-15T17:35:22;7.30;99.90
9157;DHT22;4613;48.392;9.998;2023-02-15T17:38:19;7.70;99.90
9157;DHT22;4613;48.392;9.998;2023-02-15T17:41:08;5.90;99.90
9157;DHT22;4613;48.392;9.998;2023-02-15T17:43:58;5.00;99.90
9157;DHT22;4613;48.392;9.998;2023-02-15T17:46:47;4.70;99.90
9157;DHT22;4613;48.392;9.998;2023-02-15T17:49:38;4.50;99.90
9157;DHT22;4613;48.392;9.998;2023-02-15T17:52:28;4.50;99.90
9157;DHT22;4613;48.392;9.998;2023-02-15T17:55:22;4.40;99.90
9157;DHT22;4613;48.392;9.998;2023-02-15T17:58:27;4.30;99.90
9157;DHT22;4613;48.392;9.998;2023-02-15T18:01:20;4.10;99.90
9157;DHT22;4613;48.392;9.998;2023-02-15T18:04:31;4.00;99.90
9157;DHT22;4613;48.392;9.998;2023-02-15T18:07:43;4.00;99.90
9157;DHT22;4613;48.392;9.998;2023-02-15T18:10:52;3.90;99.90
9157;DHT22;4613;48.392;9.998;2023-02-15T18:14:00;3.80;99.90
9157;DHT22;4613;48.392;9.998;2023-02-15T18:16:51;3.70;99.90
9157;DHT22;4613;48.392;9.998;2023-02-15T18:19:43;3.70;99.90
9157;DHT22;4613;48.392;9.998;2023-02-15T18:22:33;3.80;99.90
9157;DHT22;4613;48.392;9.998;2023-02-15T18:25:23;3.70;99.90
9157;DHT22;4613;48.392;9.998;2023-02-15T18:28:13;3.70;99.90
9157;DHT22;4613;48.392;9.998;2023-02-15T18:31:03;3.60;99.90
9157;DHT22;4613;48.392;9.998;2023-02-15T18:33:57;3.70;99.90
9157;DHT22;4613;48.392;9.998;2023-02-15T18:36:48;3.60;99.90
9157;DHT22;4613;48.392;9.998;2023-02-15T18:39:46;3.60;99.90
9157;DHT22;4613;48.392;9.998;2023-02-15T18:42:35;3.50;99.90
9157;DHT22;4613;48.392;9.998;2023-02-15T18:45:27;3.50;99.90
9157;DHT22;4613;48.392;9.998;2023-02-15T18:48:20;3.50;99.90
9157;DHT22;4613;48.392;9.998;2023-02-15T18:51:18;3.40;99.90
9157;DHT22;4613;48.392;9.998;2023-02-15T18:54:17;3.40;99.90
9157;DHT22;4613;48.392;9.998;2023-02-15T18:57:12;3.40;99.90
9157;DHT22;4613;48.392;9.998;2023-02-15T19:00:03;3.30;99.90
9157;DHT22;4613;48.392;9.998;2023-02-15T19:02:55;3.30;99.90
9157;DHT22;4613;48.392;9.998;2023-02-15T19:05:46;3.20;99.90
9157;DHT22;4613;48.392;9.998;2023-02-15T19:08:37;3.10;99.90
9157;DHT22;4613;48.392;9.998;2023-02-15T19:11:28;3.10;99.90
9157;DHT22;4613;48.392;9.998;2023-02-15T19:14:31;3.10;99.90
9157;DHT22;4613;48.392;9.998;2023-02-15T19:17:22;3.00;99.90
9157;DHT22;4613;48.392;9.998;2023-02-15T19:20:18;3.00;99.90
9157;DHT22;4613;48.392;9.998;2023-02-15T19:23:22;3.10;99.90
9157;DHT22;4613;48.392;9.998;2023-02-15T19:26:15;3.20;99.90
9157;DHT22;4613;48.392;9.998;2023-02-15T19:29:05;3.10;99.90
9157;DHT22;4613;48.392;9.998;2023-02-15T19:31:55;3.10;99.90
9157;DHT22;4613;48.392;9.998;2023-02-15T19:34:45;3.10;99.90
9157;DHT22;4613;48.392;9.998;2023-02-15T19:37:37;3.10;99.90
9157;DHT22;4613;48.392;9.998;2023-02-15T19:40:30;3.00;99.90
9157;DHT22;4613;48.392;9.998;2023-02-15T19:43:26;3.00;99.90
9157;DHT22;4613;48.392;9.998;2023-02-15T19:46:16;3.00;99.90
9157;DHT22;4613;48.392;9.998;2023-02-15T19:49:07;3.00;99.90
9157;DHT22;4613;48.392;9.998;2023-02-15T19:51:58;2.90;99.90
9157;DHT22;4613;48.392;9.998;2023-02-15T19:54:48;2.90;99.90
9157;DHT22;4613;48.392;9.998;2023-02-15T19:57:39;2.80;99.90
9157;DHT22;4613;48.392;9.998;2023-02-15T20:00:30;2.80;99.90
9157;DHT22;4613;48.392;9.998;2023-02-15T20:03:20;2.70;99.90
9157;DHT22;4613;48.392;9.998;2023-02-15T20:06:14;2.50;99.90
9157;DHT22;4613;48.392;9.998;2023-02-15T20:09:04;2.40;99.90
9157;DHT22;4613;48.392;9.998;2023-02-15T20:11:56;2.20;99.90
9157;DHT22;4613;48.392;9.998;2023-02-15T20:14:46;2.20;99.90
9157;DHT22;4613;48.392;9.998;2023-02-15T20:17:35;2.50;99.90
9157;DHT22;4613;48.392;9.998;2023-02-15T20:20:53;2.50;99.90
9157;DHT22;4613;48.392;9.998;2023-02-15T20:23:43;2.60;99.90
9157;DHT22;4613;48.392;9.998;2023-02-15T20:26:34;2.40;99.90
9157;DHT22;4613;48.392;9.998;2023-02-15T20:29:23;2.40;99.90
9157;DHT22;4613;48.392;9.998;2023-02-15T20:32:13;2.50;99.90
9157;DHT22;4613;48.392;9.998;2023-02-15T20:35:02;2.30;99.90
9157;DHT22;4613;48.392;9.998;2023-02-15T20:37:54;2.30;99.90
9157;DHT22;4613;48.392;9.998;2023-02-15T20:40:45;2.10;99.90
9157;DHT22;4613;48.392;9.998;2023-02-15T20:43:58;2.00;99.90
9157;DHT22;4613;48.392;9.998;2023-02-15T20:46:49;1.70;99.90
9157;DHT22;4613;48.392;9.998;2023-02-15T20:49:39;1.80;99.90
9157;DHT22;4613;48.392;9.998;2023-02-15T20:52:29;1.90;99.90
9157;DHT22;4613;48.392;9.998;2023-02-15T20:55:27;1.90;99.90
9157;DHT22;4613;48.392;9.998;2023-02-15T20:58:19;1.90;99.90
9157;DHT22;4613;48.392;9.998;2023-02-15T21:01:10;1.90;99.90
9157;DHT22;4613;48.392;9.998;2023-02-15T21:04:01;1.80;99.90
9157;DHT22;4613;48.392;9.998;2023-02-15T21:06:51;1.80;99.90
9157;DHT22;4613;48.392;9.998;2023-02-15T21:09:42;1.60;99.90
9157;DHT22;4613;48.392;9.998;2023-02-15T21:12:33;1.50;99.90
9157;DHT22;4613;48.392;9.998;2023-02-15T21:15:30;1.40;99.90
9157;DHT22;4613;48.392;9.998;2023-02-15T21:18:29;1.30;99.90
9157;DHT22;4613;48.392;9.998;2023-02-15T21:21:24;1.20;99.90
9157;DHT22;4613;48.392;9.998;2023-02-15T21:24:22;1.00;99.90
9157;DHT22;4613;48.392;9.998;2023-02-15T21:27:12;1.10;99.90
9157;DHT22;4613;48.392;9.998;2023-02-15T21:30:02;1.30;99.90
9157;DHT22;4613;48.392;9.998;2023-02-15T21:32:54;1.00;99.90
9157;DHT22;4613;48.392;9.998;2023-02-15T21:35:47;0.90;99.90
9157;DHT22;4613;48.392;9.998;2023-02-15T21:38:37;0.90;99.90
9157;DHT22;4613;48.392;9.998;2023-02-15T21:41:26;0.90;99.90